sensor_id;sensor_type;location;lat;lon;timestamp;P1;durP1;ratioP1;P2;durP2;ratioP2
36931;SDS011;22847;42.654;23.370;2024-02-21T00:00:24;7.03;;;5.15;;
36931;SDS011;22847;42.654;23.370;2024-02-21T00:02:50;8.55;;;5.05;;
36931;SDS011;22847;42.654;23.370;2024-02-21T00:05:15;7.88;;;5.82;;
36931;SDS011;22847;42.654;23.370;2024-02-21T00:07:41;8.50;;;5.18;;
36931;SDS011;22847;42.654;23.370;2024-02-21T00:10:07;9.13;;;5.47;;
36931;SDS011;22847;42.654;23.370;2024-02-21T00:12:33;8.90;;;5.60;;
36931;SDS011;22847;42.654;23.370;2024-02-21T00:14:58;10.77;;;5.57;;
36931;SDS011;22847;42.654;23.370;2024-02-21T00:17:23;6.78;;;4.63;;
36931;SDS011;22847;42.654;23.370;2024-02-21T00:19:51;10.20;;;5.80;;
36931;SDS011;22847;42.654;23.370;2024-02-21T00:22:16;9.75;;;5.93;;
36931;SDS011;22847;42.654;23.370;2024-02-21T00:24:42;9.55;;;6.43;;
36931;SDS011;22847;42.654;23.370;2024-02-21T00:27:07;11.65;;;6.45;;
36931;SDS011;22847;42.654;23.370;2024-02-21T00:29:33;8.50;;;5.88;;
36931;SDS011;22847;42.654;23.370;2024-02-21T00:31:59;7.78;;;5.25;;
36931;SDS011;22847;42.654;23.370;2024-02-21T00:34:25;7.35;;;4.82;;
36931;SDS011;22847;42.654;23.370;2024-02-21T00:36:50;9.45;;;5.28;;
36931;SDS011;22847;42.654;23.370;2024-02-21T00:39:16;8.90;;;5.65;;
36931;SDS011;22847;42.654;23.370;2024-02-21T00:41:41;7.88;;;5.30;;
36931;SDS011;22847;42.654;23.370;2024-02-21T00:44:07;8.20;;;5.72;;
36931;SDS011;22847;42.654;23.370;2024-02-21T00:46:32;7.45;;;4.95;;
36931;SDS011;22847;42.654;23.370;2024-02-21T00:48:58;9.68;;;5.93;;
36931;SDS011;22847;42.654;23.370;2024-02-21T00:51:23;10.07;;;5.93;;
36931;SDS011;22847;42.654;23.370;2024-02-21T00:53:49;9.10;;;5.75;;
36931;SDS011;22847;42.654;23.370;2024-02-21T00:56:14;8.23;;;4.95;;
36931;SDS011;22847;42.654;23.370;2024-02-21T00:58:39;8.18;;;5.20;;
36931;SDS011;22847;42.654;23.370;2024-02-21T01:01:05;8.60;;;5.38;;
36931;SDS011;22847;42.654;23.370;2024-02-21T01:03:31;7.93;;;5.40;;
36931;SDS011;22847;42.654;23.370;2024-02-21T01:05:56;8.40;;;5.07;;
36931;SDS011;22847;42.654;23.370;2024-02-21T01:08:22;9.95;;;4.70;;
36931;SDS011;22847;42.654;23.370;2024-02-21T01:10:47;7.22;;;4.72;;
36931;SDS011;22847;42.654;23.370;2024-02-21T01:13:13;8.00;;;4.95;;
36931;SDS011;22847;42.654;23.370;2024-02-21T01:15:39;6.45;;;4.35;;
36931;SDS011;22847;42.654;23.370;2024-02-21T01:18:05;9.85;;;5.07;;
36931;SDS011;22847;42.654;23.370;2024-02-21T01:20:30;8.43;;;5.25;;
36931;SDS011;22847;42.654;23.370;2024-02-21T01:22:56;7.50;;;5.32;;
36931;SDS011;22847;42.654;23.370;2024-02-21T01:25:21;7.63;;;5.32;;
36931;SDS011;22847;42.654;23.370;2024-02-21T01:27:46;10.40;;;5.50;;
36931;SDS011;22847;42.654;23.370;2024-02-21T01:30:12;8.63;;;5.18;;
36931;SDS011;22847;42.654;23.370;2024-02-21T01:32:37;7.60;;;5.50;;
36931;SDS011;22847;42.654;23.370;2024-02-21T01:35:03;7.65;;;5.50;;
36931;SDS011;22847;42.654;23.370;2024-02-21T01:37:29;8.32;;;5.38;;
36931;SDS011;22847;42.654;23.370;2024-02-21T01:39:54;8.75;;;5.53;;
36931;SDS011;22847;42.654;23.370;2024-02-21T01:42:20;8.32;;;5.38;;
36931;SDS011;22847;42.654;23.370;2024-02-21T01:44:45;8.52;;;5.70;;
36931;SDS011;22847;42.654;23.370;2024-02-21T01:47:11;8.02;;;5.55;;
36931;SDS011;22847;42.654;23.370;2024-02-21T01:49:40;8.38;;;5.65;;
36931;SDS011;22847;42.654;23.370;2024-02-21T01:52:06;7.45;;;5.30;;
36931;SDS011;22847;42.654;23.370;2024-02-21T01:54:32;11.13;;;6.38;;
36931;SDS011;22847;42.654;23.370;2024-02-21T01:56:58;7.65;;;5.85;;
36931;SDS011;22847;42.654;23.370;2024-02-21T01:59:24;7.55;;;5.30;;
36931;SDS011;22847;42.654;23.370;2024-02-21T02:01:50;8.65;;;6.13;;
36931;SDS011;22847;42.654;23.370;2024-02-21T02:04:17;9.18;;;5.80;;
36931;SDS011;22847;42.654;23.370;2024-02-21T02:06:45;10.77;;;6.25;;
36931;SDS011;22847;42.654;23.370;2024-02-21T02:09:10;9.65;;;6.60;;
36931;SDS011;22847;42.654;23.370;2024-02-21T02:11:36;9.05;;;6.38;;
36931;SDS011;22847;42.654;23.370;2024-02-21T02:14:02;9.70;;;6.35;;
36931;SDS011;22847;42.654;23.370;2024-02-21T02:16:28;12.10;;;7.07;;
36931;SDS011;22847;42.654;23.370;2024-02-21T02:18:53;10.68;;;6.82;;
36931;SDS011;22847;42.654;23.370;2024-02-21T02:21:32;10.57;;;6.65;;
36931;SDS011;22847;42.654;23.370;2024-02-21T02:24:04;13.32;;;7.18;;
36931;SDS011;22847;42.654;23.370;2024-02-21T02:26:30;12.23;;;7.68;;
36931;SDS011;22847;42.654;23.370;2024-02-21T02:28:55;12.18;;;7.75;;
36931;SDS011;22847;42.654;23.370;2024-02-21T02:31:20;13.20;;;8.40;;
36931;SDS011;22847;42.654;23.370;2024-02-21T02:33:46;13.75;;;8.10;;
36931;SDS011;22847;42.654;23.370;2024-02-21T02:36:13;12.38;;;8.57;;
36931;SDS011;22847;42.654;23.370;2024-02-21T02:38:38;15.57;;;8.93;;
36931;SDS011;22847;42.654;23.370;2024-02-21T02:41:04;16.58;;;9.27;;
36931;SDS011;22847;42.654;23.370;2024-02-21T02:43:29;15.68;;;8.95;;
36931;SDS011;22847;42.654;23.370;2024-02-21T02:45:55;15.38;;;9.25;;
36931;SDS011;22847;42.654;23.370;2024-02-21T02:48:20;14.07;;;9.25;;
36931;SDS011;22847;42.654;23.370;2024-02-21T02:50:46;16.83;;;9.65;;
36931;SDS011;22847;42.654;23.370;2024-02-21T02:53:12;15.05;;;9.32;;
36931;SDS011;22847;42.654;23.370;2024-02-21T02:55:37;15.23;;;9.48;;
36931;SDS011;22847;42.654;23.370;2024-02-21T02:58:03;15.07;;;9.55;;
36931;SDS011;22847;42.654;23.370;2024-02-21T03:00:28;14.35;;;9.13;;
36931;SDS011;22847;42.654;23.370;2024-02-21T03:02:53;17.98;;;10.45;;
36931;SDS011;22847;42.654;23.370;2024-02-21T03:05:20;16.15;;;9.80;;
36931;SDS011;22847;42.654;23.370;2024-02-21T03:07:46;15.57;;;9.77;;
36931;SDS011;22847;42.654;23.370;2024-02-21T03:10:13;17.40;;;10.20;;
36931;SDS011;22847;42.654;23.370;2024-02-21T03:12:39;17.90;;;9.75;;
36931;SDS011;22847;42.654;23.370;2024-02-21T03:15:05;20.20;;;11.30;;
36931;SDS011;22847;42.654;23.370;2024-02-21T03:17:31;15.10;;;9.48;;
36931;SDS011;22847;42.654;23.370;2024-02-21T03:19:59;17.90;;;10.60;;
36931;SDS011;22847;42.654;23.370;2024-02-21T03:22:25;16.30;;;10.27;;
36931;SDS011;22847;42.654;23.370;2024-02-21T03:24:50;18.30;;;10.93;;
36931;SDS011;22847;42.654;23.370;2024-02-21T03:27:16;18.45;;;10.27;;
36931;SDS011;22847;42.654;23.370;2024-02-21T03:29:42;15.55;;;10.05;;
36931;SDS011;22847;42.654;23.370;2024-02-21T03:32:08;16.83;;;9.88;;
36931;SDS011;22847;42.654;23.370;2024-02-21T03:34:33;17.67;;;9.68;;
36931;SDS011;22847;42.654;23.370;2024-02-21T03:36:59;17.23;;;10.88;;
36931;SDS011;22847;42.654;23.370;2024-02-21T03:39:25;17.67;;;10.48;;
36931;SDS011;22847;42.654;23.370;2024-02-21T03:41:50;16.67;;;10.38;;
36931;SDS011;22847;42.654;23.370;2024-02-21T03:44:16;16.30;;;9.73;;
36931;SDS011;22847;42.654;23.370;2024-02-21T03:46:41;17.77;;;10.20;;
36931;SDS011;22847;42.654;23.370;2024-02-21T03:49:07;16.92;;;9.95;;
36931;SDS011;22847;42.654;23.370;2024-02-21T03:51:32;17.88;;;10.75;;
36931;SDS011;22847;42.654;23.370;2024-02-21T03:53:58;18.45;;;10.55;;
36931;SDS011;22847;42.654;23.370;2024-02-21T03:56:23;16.20;;;10.55;;
36931;SDS011;22847;42.654;23.370;2024-02-21T03:58:49;17.95;;;10.48;;
36931;SDS011;22847;42.654;23.370;2024-02-21T04:01:15;19.33;;;11.02;;
36931;SDS011;22847;42.654;23.370;2024-02-21T04:03:41;15.88;;;10.00;;
36931;SDS011;22847;42.654;23.370;2024-02-21T04:06:08;19.65;;;10.93;;
36931;SDS011;22847;42.654;23.370;2024-02-21T04:08:34;15.90;;;10.18;;
36931;SDS011;22847;42.654;23.370;2024-02-21T04:11:00;16.27;;;10.55;;
36931;SDS011;22847;42.654;23.370;2024-02-21T04:13:25;16.88;;;10.02;;
36931;SDS011;22847;42.654;23.370;2024-02-21T04:15:51;18.92;;;10.10;;
36931;SDS011;22847;42.654;23.370;2024-02-21T04:18:17;16.05;;;10.43;;
36931;SDS011;22847;42.654;23.370;2024-02-21T04:20:42;17.45;;;10.55;;
36931;SDS011;22847;42.654;23.370;2024-02-21T04:23:08;18.15;;;11.23;;
36931;SDS011;22847;42.654;23.370;2024-02-21T04:25:34;17.35;;;10.68;;
36931;SDS011;22847;42.654;23.370;2024-02-21T04:27:59;18.40;;;10.55;;
36931;SDS011;22847;42.654;23.370;2024-02-21T04:30:25;17.60;;;11.48;;
36931;SDS011;22847;42.654;23.370;2024-02-21T04:32:51;17.83;;;10.85;;
36931;SDS011;22847;42.654;23.370;2024-02-21T04:35:16;20.02;;;10.57;;
36931;SDS011;22847;42.654;23.370;2024-02-21T04:37:42;19.77;;;11.70;;
36931;SDS011;22847;42.654;23.370;2024-02-21T04:40:07;18.95;;;11.75;;
36931;SDS011;22847;42.654;23.370;2024-02-21T04:42:34;19.75;;;12.32;;
36931;SDS011;22847;42.654;23.370;2024-02-21T04:44:59;20.48;;;12.52;;
36931;SDS011;22847;42.654;23.370;2024-02-21T04:47:25;23.95;;;13.30;;
36931;SDS011;22847;42.654;23.370;2024-02-21T04:49:51;20.80;;;13.02;;
36931;SDS011;22847;42.654;23.370;2024-02-21T04:52:17;19.75;;;12.77;;
36931;SDS011;22847;42.654;23.370;2024-02-21T04:54:42;20.52;;;12.63;;
36931;SDS011;22847;42.654;23.370;2024-02-21T04:57:08;19.02;;;12.27;;
36931;SDS011;22847;42.654;23.370;2024-02-21T04:59:35;19.35;;;11.68;;
36931;SDS011;22847;42.654;23.370;2024-02-21T05:02:01;19.95;;;12.88;;
36931;SDS011;22847;42.654;23.370;2024-02-21T05:04:26;19.70;;;12.27;;
36931;SDS011;22847;42.654;23.370;2024-02-21T05:06:52;21.85;;;12.57;;
36931;SDS011;22847;42.654;23.370;2024-02-21T05:09:17;22.70;;;12.60;;
36931;SDS011;22847;42.654;23.370;2024-02-21T05:11:43;31.08;;;12.43;;
36931;SDS011;22847;42.654;23.370;2024-02-21T05:14:08;19.55;;;11.55;;
36931;SDS011;22847;42.654;23.370;2024-02-21T05:16:34;22.55;;;12.93;;
36931;SDS011;22847;42.654;23.370;2024-02-21T05:18:59;20.63;;;13.18;;
36931;SDS011;22847;42.654;23.370;2024-02-21T05:21:25;20.40;;;12.30;;
36931;SDS011;22847;42.654;23.370;2024-02-21T05:23:51;24.33;;;12.90;;
36931;SDS011;22847;42.654;23.370;2024-02-21T05:26:20;21.13;;;13.07;;
36931;SDS011;22847;42.654;23.370;2024-02-21T05:28:47;22.45;;;13.48;;
36931;SDS011;22847;42.654;23.370;2024-02-21T05:31:12;20.48;;;12.07;;
36931;SDS011;22847;42.654;23.370;2024-02-21T05:33:39;27.48;;;15.65;;
36931;SDS011;22847;42.654;23.370;2024-02-21T05:36:05;23.40;;;13.13;;
36931;SDS011;22847;42.654;23.370;2024-02-21T05:38:30;20.55;;;12.63;;
36931;SDS011;22847;42.654;23.370;2024-02-21T05:40:56;22.15;;;12.95;;
36931;SDS011;22847;42.654;23.370;2024-02-21T05:43:22;19.42;;;12.75;;
36931;SDS011;22847;42.654;23.370;2024-02-21T05:45:47;25.17;;;13.50;;
36931;SDS011;22847;42.654;23.370;2024-02-21T05:48:13;22.83;;;13.00;;
36931;SDS011;22847;42.654;23.370;2024-02-21T05:50:39;22.95;;;13.60;;
36931;SDS011;22847;42.654;23.370;2024-02-21T05:53:04;25.83;;;13.68;;
36931;SDS011;22847;42.654;23.370;2024-02-21T05:55:30;20.70;;;12.50;;
36931;SDS011;22847;42.654;23.370;2024-02-21T05:57:55;23.90;;;13.45;;
36931;SDS011;22847;42.654;23.370;2024-02-21T06:00:21;21.17;;;12.82;;
36931;SDS011;22847;42.654;23.370;2024-02-21T06:02:46;21.65;;;13.48;;
36931;SDS011;22847;42.654;23.370;2024-02-21T06:05:12;22.85;;;12.63;;
36931;SDS011;22847;42.654;23.370;2024-02-21T06:07:38;27.23;;;14.07;;
36931;SDS011;22847;42.654;23.370;2024-02-21T06:10:04;24.20;;;13.63;;
36931;SDS011;22847;42.654;23.370;2024-02-21T06:12:32;25.17;;;13.93;;
36931;SDS011;22847;42.654;23.370;2024-02-21T06:14:57;19.98;;;13.05;;
36931;SDS011;22847;42.654;23.370;2024-02-21T06:17:23;22.73;;;13.93;;
36931;SDS011;22847;42.654;23.370;2024-02-21T06:19:48;23.83;;;13.48;;
36931;SDS011;22847;42.654;23.370;2024-02-21T06:22:13;26.48;;;13.90;;
36931;SDS011;22847;42.654;23.370;2024-02-21T06:24:39;25.27;;;13.27;;
36931;SDS011;22847;42.654;23.370;2024-02-21T06:27:04;22.20;;;13.43;;
36931;SDS011;22847;42.654;23.370;2024-02-21T06:29:33;30.40;;;13.70;;
36931;SDS011;22847;42.654;23.370;2024-02-21T06:32:00;21.98;;;13.15;;
36931;SDS011;22847;42.654;23.370;2024-02-21T06:34:28;23.02;;;13.50;;
36931;SDS011;22847;42.654;23.370;2024-02-21T06:36:53;23.10;;;14.23;;
36931;SDS011;22847;42.654;23.370;2024-02-21T06:39:19;26.40;;;14.52;;
36931;SDS011;22847;42.654;23.370;2024-02-21T06:41:45;25.20;;;14.63;;
36931;SDS011;22847;42.654;23.370;2024-02-21T06:44:10;25.85;;;14.80;;
36931;SDS011;22847;42.654;23.370;2024-02-21T06:46:36;30.55;;;15.40;;
36931;SDS011;22847;42.654;23.370;2024-02-21T06:49:01;28.40;;;15.27;;
36931;SDS011;22847;42.654;23.370;2024-02-21T06:51:30;27.55;;;15.73;;
36931;SDS011;22847;42.654;23.370;2024-02-21T06:53:56;30.27;;;16.50;;
36931;SDS011;22847;42.654;23.370;2024-02-21T06:56:23;26.25;;;15.23;;
36931;SDS011;22847;42.654;23.370;2024-02-21T06:58:54;29.00;;;16.38;;
36931;SDS011;22847;42.654;23.370;2024-02-21T07:01:23;34.47;;;16.98;;
36931;SDS011;22847;42.654;23.370;2024-02-21T07:03:49;32.17;;;16.95;;
36931;SDS011;22847;42.654;23.370;2024-02-21T07:06:15;33.63;;;15.90;;
36931;SDS011;22847;42.654;23.370;2024-02-21T07:08:40;26.63;;;16.25;;
36931;SDS011;22847;42.654;23.370;2024-02-21T07:11:06;30.90;;;16.08;;
36931;SDS011;22847;42.654;23.370;2024-02-21T07:13:32;33.80;;;16.55;;
36931;SDS011;22847;42.654;23.370;2024-02-21T07:15:57;27.50;;;15.85;;
36931;SDS011;22847;42.654;23.370;2024-02-21T07:18:23;28.33;;;17.02;;
36931;SDS011;22847;42.654;23.370;2024-02-21T07:20:50;30.55;;;17.63;;
36931;SDS011;22847;42.654;23.370;2024-02-21T07:23:16;31.60;;;17.17;;
36931;SDS011;22847;42.654;23.370;2024-02-21T07:25:43;28.70;;;15.90;;
36931;SDS011;22847;42.654;23.370;2024-02-21T07:28:08;27.48;;;15.95;;
36931;SDS011;22847;42.654;23.370;2024-02-21T07:30:35;36.97;;;18.55;;
36931;SDS011;22847;42.654;23.370;2024-02-21T07:33:00;37.70;;;18.38;;
36931;SDS011;22847;42.654;23.370;2024-02-21T07:35:26;29.60;;;16.88;;
36931;SDS011;22847;42.654;23.370;2024-02-21T07:37:51;29.15;;;15.98;;
36931;SDS011;22847;42.654;23.370;2024-02-21T07:40:17;28.95;;;15.82;;
36931;SDS011;22847;42.654;23.370;2024-02-21T07:42:43;29.45;;;15.88;;
36931;SDS011;22847;42.654;23.370;2024-02-21T07:45:09;32.90;;;16.92;;
36931;SDS011;22847;42.654;23.370;2024-02-21T07:47:36;31.70;;;16.85;;
36931;SDS011;22847;42.654;23.370;2024-02-21T07:50:02;29.27;;;16.50;;
36931;SDS011;22847;42.654;23.370;2024-02-21T07:52:28;29.40;;;16.50;;
36931;SDS011;22847;42.654;23.370;2024-02-21T07:54:54;34.65;;;17.77;;
36931;SDS011;22847;42.654;23.370;2024-02-21T07:57:19;29.75;;;17.50;;
36931;SDS011;22847;42.654;23.370;2024-02-21T07:59:45;35.72;;;16.05;;
36931;SDS011;22847;42.654;23.370;2024-02-21T08:02:13;27.60;;;16.55;;
36931;SDS011;22847;42.654;23.370;2024-02-21T08:04:39;26.95;;;17.02;;
36931;SDS011;22847;42.654;23.370;2024-02-21T08:07:04;27.90;;;14.85;;
36931;SDS011;22847;42.654;23.370;2024-02-21T08:09:30;29.70;;;16.27;;
36931;SDS011;22847;42.654;23.370;2024-02-21T08:11:56;31.80;;;17.90;;
36931;SDS011;22847;42.654;23.370;2024-02-21T08:14:21;29.45;;;16.52;;
36931;SDS011;22847;42.654;23.370;2024-02-21T08:16:49;34.15;;;17.92;;
36931;SDS011;22847;42.654;23.370;2024-02-21T08:19:15;30.13;;;17.75;;
36931;SDS011;22847;42.654;23.370;2024-02-21T08:21:41;38.00;;;20.05;;
36931;SDS011;22847;42.654;23.370;2024-02-21T08:24:06;31.92;;;17.27;;
36931;SDS011;22847;42.654;23.370;2024-02-21T08:26:32;28.02;;;16.15;;
36931;SDS011;22847;42.654;23.370;2024-02-21T08:28:57;27.42;;;15.80;;
36931;SDS011;22847;42.654;23.370;2024-02-21T08:31:25;32.63;;;16.45;;
36931;SDS011;22847;42.654;23.370;2024-02-21T08:33:56;37.95;;;20.70;;
36931;SDS011;22847;42.654;23.370;2024-02-21T08:36:27;35.78;;;20.80;;
36931;SDS011;22847;42.654;23.370;2024-02-21T08:38:57;40.53;;;25.45;;
36931;SDS011;22847;42.654;23.370;2024-02-21T08:41:23;28.60;;;15.98;;
36931;SDS011;22847;42.654;23.370;2024-02-21T08:43:52;25.27;;;15.32;;
36931;SDS011;22847;42.654;23.370;2024-02-21T08:46:20;26.88;;;14.38;;
36931;SDS011;22847;42.654;23.370;2024-02-21T08:48:46;25.95;;;15.32;;
36931;SDS011;22847;42.654;23.370;2024-02-21T08:51:12;21.77;;;14.45;;
36931;SDS011;22847;42.654;23.370;2024-02-21T08:53:38;22.20;;;13.85;;
36931;SDS011;22847;42.654;23.370;2024-02-21T08:56:03;22.58;;;14.13;;
36931;SDS011;22847;42.654;23.370;2024-02-21T08:58:29;21.17;;;13.30;;
36931;SDS011;22847;42.654;23.370;2024-02-21T09:00:55;23.23;;;13.98;;
36931;SDS011;22847;42.654;23.370;2024-02-21T09:03:22;24.35;;;13.85;;
36931;SDS011;22847;42.654;23.370;2024-02-21T09:05:47;23.27;;;12.82;;
36931;SDS011;22847;42.654;23.370;2024-02-21T09:08:13;24.67;;;13.68;;
36931;SDS011;22847;42.654;23.370;2024-02-21T09:10:41;20.50;;;12.60;;
36931;SDS011;22847;42.654;23.370;2024-02-21T09:13:07;20.15;;;14.02;;
36931;SDS011;22847;42.654;23.370;2024-02-21T09:15:33;20.10;;;12.70;;
36931;SDS011;22847;42.654;23.370;2024-02-21T09:17:59;18.95;;;12.80;;
36931;SDS011;22847;42.654;23.370;2024-02-21T09:20:25;18.30;;;12.50;;
36931;SDS011;22847;42.654;23.370;2024-02-21T09:22:50;20.52;;;13.27;;
36931;SDS011;22847;42.654;23.370;2024-02-21T09:25:17;17.58;;;12.10;;
36931;SDS011;22847;42.654;23.370;2024-02-21T09:27:43;18.20;;;12.15;;
36931;SDS011;22847;42.654;23.370;2024-02-21T09:30:09;18.75;;;11.40;;
36931;SDS011;22847;42.654;23.370;2024-02-21T09:32:35;18.98;;;11.82;;
36931;SDS011;22847;42.654;23.370;2024-02-21T09:35:01;26.20;;;13.77;;
36931;SDS011;22847;42.654;23.370;2024-02-21T09:37:27;20.52;;;12.80;;
36931;SDS011;22847;42.654;23.370;2024-02-21T09:39:52;21.58;;;12.70;;
36931;SDS011;22847;42.654;23.370;2024-02-21T09:42:21;21.25;;;12.70;;
36931;SDS011;22847;42.654;23.370;2024-02-21T09:44:48;20.00;;;13.63;;
36931;SDS011;22847;42.654;23.370;2024-02-21T09:47:17;21.52;;;13.02;;
36931;SDS011;22847;42.654;23.370;2024-02-21T09:49:47;20.50;;;13.75;;
36931;SDS011;22847;42.654;23.370;2024-02-21T09:52:13;21.85;;;13.05;;
36931;SDS011;22847;42.654;23.370;2024-02-21T09:54:40;22.60;;;14.20;;
36931;SDS011;22847;42.654;23.370;2024-02-21T09:57:10;21.13;;;12.93;;
36931;SDS011;22847;42.654;23.370;2024-02-21T09:59:37;18.40;;;12.75;;
36931;SDS011;22847;42.654;23.370;2024-02-21T10:02:02;21.33;;;13.38;;
36931;SDS011;22847;42.654;23.370;2024-02-21T10:04:29;18.70;;;11.90;;
36931;SDS011;22847;42.654;23.370;2024-02-21T10:06:55;18.15;;;12.43;;
36931;SDS011;22847;42.654;23.370;2024-02-21T10:09:27;14.18;;;10.75;;
36931;SDS011;22847;42.654;23.370;2024-02-21T10:11:54;14.45;;;10.65;;
36931;SDS011;22847;42.654;23.370;2024-02-21T10:14:20;18.13;;;10.77;;
36931;SDS011;22847;42.654;23.370;2024-02-21T10:16:47;13.13;;;9.35;;
36931;SDS011;22847;42.654;23.370;2024-02-21T10:19:20;17.65;;;11.05;;
36931;SDS011;22847;42.654;23.370;2024-02-21T10:22:05;15.15;;;10.90;;
36931;SDS011;22847;42.654;23.370;2024-02-21T10:24:32;16.27;;;10.30;;
36931;SDS011;22847;42.654;23.370;2024-02-21T10:27:07;19.77;;;11.75;;
36931;SDS011;22847;42.654;23.370;2024-02-21T10:29:40;17.98;;;11.57;;
36931;SDS011;22847;42.654;23.370;2024-02-21T10:32:07;23.60;;;13.02;;
36931;SDS011;22847;42.654;23.370;2024-02-21T10:34:33;17.48;;;11.88;;
36931;SDS011;22847;42.654;23.370;2024-02-21T10:37:03;18.17;;;11.40;;
36931;SDS011;22847;42.654;23.370;2024-02-21T10:39:31;18.15;;;10.95;;
36931;SDS011;22847;42.654;23.370;2024-02-21T10:41:59;27.35;;;9.65;;
36931;SDS011;22847;42.654;23.370;2024-02-21T10:44:38;14.13;;;9.38;;
36931;SDS011;22847;42.654;23.370;2024-02-21T10:47:07;12.45;;;8.98;;
36931;SDS011;22847;42.654;23.370;2024-02-21T10:49:36;19.45;;;9.80;;
36931;SDS011;22847;42.654;23.370;2024-02-21T10:52:14;13.73;;;9.63;;
36931;SDS011;22847;42.654;23.370;2024-02-21T10:55:03;15.90;;;10.20;;
36931;SDS011;22847;42.654;23.370;2024-02-21T10:57:31;16.75;;;10.13;;
36931;SDS011;22847;42.654;23.370;2024-02-21T10:59:56;15.07;;;8.40;;
36931;SDS011;22847;42.654;23.370;2024-02-21T11:02:23;12.80;;;9.10;;
36931;SDS011;22847;42.654;23.370;2024-02-21T11:04:51;12.00;;;8.68;;
36931;SDS011;22847;42.654;23.370;2024-02-21T11:07:18;10.77;;;7.85;;
36931;SDS011;22847;42.654;23.370;2024-02-21T11:09:53;15.30;;;9.57;;
36931;SDS011;22847;42.654;23.370;2024-02-21T11:12:22;14.48;;;9.45;;
36931;SDS011;22847;42.654;23.370;2024-02-21T11:14:49;13.75;;;9.32;;
36931;SDS011;22847;42.654;23.370;2024-02-21T11:17:18;14.85;;;10.10;;
36931;SDS011;22847;42.654;23.370;2024-02-21T11:19:44;14.70;;;8.40;;
36931;SDS011;22847;42.654;23.370;2024-02-21T11:22:16;13.90;;;9.00;;
36931;SDS011;22847;42.654;23.370;2024-02-21T11:24:43;10.85;;;7.88;;
36931;SDS011;22847;42.654;23.370;2024-02-21T11:29:44;9.40;;;6.88;;
36931;SDS011;22847;42.654;23.370;2024-02-21T11:32:10;10.70;;;6.88;;
36931;SDS011;22847;42.654;23.370;2024-02-21T11:34:39;10.88;;;6.20;;
36931;SDS011;22847;42.654;23.370;2024-02-21T11:37:13;8.95;;;6.40;;
36931;SDS011;22847;42.654;23.370;2024-02-21T11:39:42;9.75;;;6.13;;
36931;SDS011;22847;42.654;23.370;2024-02-21T11:42:08;12.13;;;6.28;;
36931;SDS011;22847;42.654;23.370;2024-02-21T11:44:34;9.07;;;6.40;;
36931;SDS011;22847;42.654;23.370;2024-02-21T11:47:03;8.02;;;5.38;;
36931;SDS011;22847;42.654;23.370;2024-02-21T11:49:29;8.93;;;5.85;;
36931;SDS011;22847;42.654;23.370;2024-02-21T11:51:59;9.23;;;6.28;;
36931;SDS011;22847;42.654;23.370;2024-02-21T11:54:26;7.65;;;5.55;;
36931;SDS011;22847;42.654;23.370;2024-02-21T11:56:52;10.57;;;7.43;;
36931;SDS011;22847;42.654;23.370;2024-02-21T11:59:17;8.45;;;6.10;;
36931;SDS011;22847;42.654;23.370;2024-02-21T12:01:43;8.23;;;4.70;;
36931;SDS011;22847;42.654;23.370;2024-02-21T12:04:27;7.55;;;5.30;;
36931;SDS011;22847;42.654;23.370;2024-02-21T12:06:53;9.80;;;7.18;;
36931;SDS011;22847;42.654;23.370;2024-02-21T12:09:19;8.65;;;5.35;;
36931;SDS011;22847;42.654;23.370;2024-02-21T12:11:45;8.27;;;5.10;;
36931;SDS011;22847;42.654;23.370;2024-02-21T12:14:15;8.35;;;6.10;;
36931;SDS011;22847;42.654;23.370;2024-02-21T12:16:41;7.88;;;5.40;;
36931;SDS011;22847;42.654;23.370;2024-02-21T12:19:07;10.63;;;5.25;;
36931;SDS011;22847;42.654;23.370;2024-02-21T12:21:34;6.45;;;5.07;;
36931;SDS011;22847;42.654;23.370;2024-02-21T12:26:50;10.32;;;5.28;;
36931;SDS011;22847;42.654;23.370;2024-02-21T12:29:20;11.50;;;6.13;;
36931;SDS011;22847;42.654;23.370;2024-02-21T12:31:46;9.80;;;5.78;;
36931;SDS011;22847;42.654;23.370;2024-02-21T12:34:12;8.65;;;5.00;;
36931;SDS011;22847;42.654;23.370;2024-02-21T12:36:41;9.25;;;5.80;;
36931;SDS011;22847;42.654;23.370;2024-02-21T12:39:08;10.05;;;6.20;;
36931;SDS011;22847;42.654;23.370;2024-02-21T12:41:37;10.18;;;6.05;;
36931;SDS011;22847;42.654;23.370;2024-02-21T12:44:06;8.40;;;5.82;;
36931;SDS011;22847;42.654;23.370;2024-02-21T12:46:33;10.65;;;6.63;;
36931;SDS011;22847;42.654;23.370;2024-02-21T12:48:59;10.05;;;6.18;;
36931;SDS011;22847;42.654;23.370;2024-02-21T12:51:25;11.82;;;7.15;;
36931;SDS011;22847;42.654;23.370;2024-02-21T12:53:50;8.63;;;6.25;;
36931;SDS011;22847;42.654;23.370;2024-02-21T12:56:16;9.77;;;5.50;;
36931;SDS011;22847;42.654;23.370;2024-02-21T12:58:41;8.40;;;5.63;;
36931;SDS011;22847;42.654;23.370;2024-02-21T13:01:07;8.52;;;5.80;;
36931;SDS011;22847;42.654;23.370;2024-02-21T13:03:34;8.85;;;5.85;;
36931;SDS011;22847;42.654;23.370;2024-02-21T13:05:59;12.82;;;6.47;;
36931;SDS011;22847;42.654;23.370;2024-02-21T13:08:25;12.50;;;7.53;;
36931;SDS011;22847;42.654;23.370;2024-02-21T13:10:50;9.50;;;6.18;;
36931;SDS011;22847;42.654;23.370;2024-02-21T13:13:16;12.27;;;6.88;;
36931;SDS011;22847;42.654;23.370;2024-02-21T13:15:41;11.93;;;7.28;;
36931;SDS011;22847;42.654;23.370;2024-02-21T13:18:10;12.15;;;7.40;;
36931;SDS011;22847;42.654;23.370;2024-02-21T13:20:36;14.57;;;7.93;;
36931;SDS011;22847;42.654;23.370;2024-02-21T13:23:02;10.82;;;7.28;;
36931;SDS011;22847;42.654;23.370;2024-02-21T13:25:28;14.95;;;7.40;;
36931;SDS011;22847;42.654;23.370;2024-02-21T13:27:54;10.23;;;7.65;;
36931;SDS011;22847;42.654;23.370;2024-02-21T13:30:21;11.20;;;6.85;;
36931;SDS011;22847;42.654;23.370;2024-02-21T13:32:47;10.38;;;7.28;;
36931;SDS011;22847;42.654;23.370;2024-02-21T13:35:12;9.88;;;7.32;;
36931;SDS011;22847;42.654;23.370;2024-02-21T13:37:39;13.05;;;7.93;;
36931;SDS011;22847;42.654;23.370;2024-02-21T13:40:05;13.77;;;7.43;;
36931;SDS011;22847;42.654;23.370;2024-02-21T13:42:34;12.98;;;6.80;;
36931;SDS011;22847;42.654;23.370;2024-02-21T13:44:59;10.88;;;7.00;;
36931;SDS011;22847;42.654;23.370;2024-02-21T13:47:26;12.20;;;7.47;;
36931;SDS011;22847;42.654;23.370;2024-02-21T13:49:51;12.30;;;6.97;;
36931;SDS011;22847;42.654;23.370;2024-02-21T13:52:17;10.40;;;7.00;;
36931;SDS011;22847;42.654;23.370;2024-02-21T13:54:45;9.55;;;6.25;;
36931;SDS011;22847;42.654;23.370;2024-02-21T13:57:10;12.20;;;6.05;;
36931;SDS011;22847;42.654;23.370;2024-02-21T13:59:36;10.65;;;6.80;;
36931;SDS011;22847;42.654;23.370;2024-02-21T14:02:01;9.30;;;5.97;;
36931;SDS011;22847;42.654;23.370;2024-02-21T14:04:27;10.18;;;6.53;;
36931;SDS011;22847;42.654;23.370;2024-02-21T14:06:52;13.38;;;7.60;;
36931;SDS011;22847;42.654;23.370;2024-02-21T14:09:18;14.15;;;8.35;;
36931;SDS011;22847;42.654;23.370;2024-02-21T14:11:44;13.30;;;7.55;;
36931;SDS011;22847;42.654;23.370;2024-02-21T14:14:10;12.43;;;7.78;;
36931;SDS011;22847;42.654;23.370;2024-02-21T14:16:36;11.07;;;6.95;;
36931;SDS011;22847;42.654;23.370;2024-02-21T14:19:01;11.25;;;5.75;;